createdAt,value
2018-01-15T00:02:21.398Z,15.47
2018-01-15T00:04:48.839Z,14.80
2018-01-15T00:07:17.043Z,14.67
2018-01-15T00:09:45.008Z,14.50
2018-01-15T00:12:12.470Z,14.93
2018-01-15T00:14:39.897Z,15.97
2018-01-15T00:17:08.101Z,13.33
2018-01-15T00:19:35.539Z,13.40
2018-01-15T00:22:02.976Z,15.93
2018-01-15T00:24:31.190Z,13.67
2018-01-15T00:26:59.870Z,14.13
2018-01-15T00:29:27.611Z,16.43
2018-01-15T00:31:55.791Z,16.90
2018-01-15T00:34:23.764Z,16.60
2018-01-15T00:36:51.719Z,16.20
2018-01-15T00:39:19.717Z,15.87
2018-01-15T00:41:47.144Z,15.80
2018-01-15T00:44:15.875Z,14.73
2018-01-15T00:46:43.521Z,14.77
2018-01-15T00:49:10.950Z,15.10
2018-01-15T00:51:38.777Z,12.77
2018-01-15T00:54:06.216Z,13.83
2018-01-15T00:56:36.217Z,13.93
2018-01-15T00:59:03.655Z,14.57
2018-01-15T01:01:31.082Z,14.47
2018-01-15T01:03:58.515Z,15.47
2018-01-15T01:06:26.367Z,14.23
2018-01-15T01:08:53.805Z,15.70
2018-01-15T01:11:21.227Z,14.53
2018-01-15T01:13:49.987Z,14.50
2018-01-15T01:16:17.831Z,14.37
2018-01-15T01:18:45.968Z,14.63
2018-01-15T01:21:15.275Z,14.27
2018-01-15T01:23:42.716Z,15.33
2018-01-15T01:26:10.905Z,15.90
2018-01-15T01:28:38.494Z,15.37
2018-01-15T01:31:06.466Z,15.70
2018-01-15T01:33:33.884Z,16.63
2018-01-15T01:36:02.631Z,16.23
2018-01-15T01:38:30.060Z,17.60
2018-01-15T01:40:57.499Z,16.23
2018-01-15T01:43:24.929Z,18.13
2018-01-15T01:45:53.521Z,17.80
2018-01-15T01:48:21.708Z,16.10
2018-01-15T01:50:49.145Z,16.27
2018-01-15T01:53:19.907Z,14.83
2018-01-15T01:55:47.872Z,15.07
2018-01-15T01:58:15.301Z,14.20
2018-01-15T02:00:42.738Z,18.23
2018-01-15T02:03:10.175Z,18.77
2018-01-15T02:05:38.377Z,17.73
2018-01-15T02:08:05.803Z,16.73
2018-01-15T02:10:33.236Z,16.50
2018-01-15T02:13:01.280Z,18.13
2018-01-15T02:15:29.803Z,18.47
2018-01-15T02:17:57.226Z,22.07
2018-01-15T02:20:25.431Z,18.47
2018-01-15T02:22:59.558Z,18.10
2018-01-15T02:25:26.997Z,18.27
2018-01-15T02:27:54.428Z,18.73
2018-01-15T02:30:24.863Z,17.80
2018-01-15T02:32:53.483Z,19.13
2018-01-15T02:35:21.074Z,18.37
2018-01-15T02:37:48.495Z,16.33
2018-01-15T02:40:15.925Z,16.57
2018-01-15T02:42:43.365Z,18.43
2018-01-15T02:45:11.326Z,18.60
2018-01-15T02:47:38.760Z,20.13
2018-01-15T02:50:06.583Z,22.27
2018-01-15T02:52:34.019Z,21.30
2018-01-15T02:55:02.252Z,20.80
2018-01-15T02:57:29.676Z,20.10
2018-01-15T02:59:57.096Z,20.43
2018-01-15T03:02:25.294Z,19.63
2018-01-15T03:04:52.718Z,18.40
2018-01-15T03:07:20.153Z,19.57
2018-01-15T03:09:48.084Z,21.80
2018-01-15T03:12:30.289Z,21.93
2018-01-15T03:15:03.606Z,20.63
2018-01-15T03:17:32.443Z,20.60
2018-01-15T03:20:01.267Z,19.13
2018-01-15T03:22:28.710Z,17.00
2018-01-15T03:24:56.886Z,15.57
2018-01-15T03:27:24.324Z,17.73
2018-01-15T03:29:53.234Z,16.20
2018-01-15T03:32:20.654Z,16.60
2018-01-15T03:34:48.083Z,15.10
2018-01-15T03:37:15.515Z,16.47
2018-01-15T03:39:42.939Z,15.97
2018-01-15T03:42:11.135Z,16.23
2018-01-15T03:44:39.140Z,14.33
2018-01-15T03:47:06.577Z,16.20
2018-01-15T03:49:34.003Z,15.07
2018-01-15T03:52:02.200Z,14.47
2018-01-15T03:54:29.627Z,14.37
2018-01-15T03:56:58.483Z,14.63
2018-01-15T03:59:25.886Z,14.80
2018-01-15T04:01:54.488Z,14.07
2018-01-15T04:04:21.910Z,15.80
2018-01-15T04:06:50.107Z,15.80
2018-01-15T04:09:18.063Z,15.73
2018-01-15T04:11:46.853Z,17.93
2018-01-15T04:14:15.616Z,17.43
2018-01-15T04:16:50.199Z,15.40
2018-01-15T04:19:17.630Z,16.43
2018-01-15T04:21:45.046Z,15.80
2018-01-15T04:24:12.474Z,16.60
2018-01-15T04:26:40.210Z,15.67
2018-01-15T04:29:07.635Z,15.27
2018-01-15T04:31:35.475Z,14.30
2018-01-15T04:34:02.919Z,13.93
2018-01-15T04:36:30.334Z,13.73
2018-01-15T04:39:00.055Z,14.13
2018-01-15T04:41:27.479Z,15.20
2018-01-15T04:43:54.912Z,14.53
2018-01-15T04:46:23.554Z,14.27
2018-01-15T04:48:51.738Z,14.50
2018-01-15T04:51:19.174Z,15.30
2018-01-15T04:53:48.197Z,13.83
2018-01-15T04:56:15.620Z,15.47
2018-01-15T04:58:43.811Z,13.87
2018-01-15T05:01:13.712Z,15.60
2018-01-15T05:03:41.903Z,14.20
2018-01-15T05:06:09.333Z,14.90
2018-01-15T05:08:36.768Z,15.23
2018-01-15T05:11:04.212Z,16.30
2018-01-15T05:13:31.632Z,15.77
2018-01-15T05:16:01.499Z,17.53
2018-01-15T05:18:28.931Z,17.97
2018-01-15T05:20:56.364Z,15.60
2018-01-15T05:23:23.786Z,15.60
2018-01-15T05:25:52.014Z,14.70
2018-01-15T05:28:19.444Z,15.43
2018-01-15T05:30:47.482Z,15.03
2018-01-15T05:33:15.603Z,15.13
2018-01-15T05:35:43.559Z,16.50
2018-01-15T05:38:10.974Z,15.17
2018-01-15T05:40:38.406Z,15.27
2018-01-15T05:43:05.842Z,13.17
2018-01-15T05:45:33.267Z,13.10
2018-01-15T05:48:00.686Z,13.20
2018-01-15T05:50:28.527Z,14.30
2018-01-15T05:52:55.959Z,15.20
2018-01-15T05:55:24.555Z,15.00
2018-01-15T05:57:51.980Z,14.23
2018-01-15T06:00:20.175Z,14.30
2018-01-15T06:02:58.343Z,15.63
2018-01-15T06:05:25.778Z,13.97
2018-01-15T06:07:53.607Z,14.27
2018-01-15T06:10:21.038Z,14.90
2018-01-15T06:12:48.864Z,14.10
2018-01-15T06:15:16.291Z,13.70
2018-01-15T06:17:44.138Z,14.17
2018-01-15T06:20:12.331Z,14.57
2018-01-15T06:22:39.754Z,16.93
2018-01-15T06:25:07.699Z,14.53
2018-01-15T06:27:35.640Z,15.87
2018-01-15T06:30:03.067Z,16.33
2018-01-15T06:32:31.704Z,18.67
2018-01-15T06:34:59.120Z,18.97
2018-01-15T06:37:26.551Z,17.07
2018-01-15T06:39:54.752Z,16.53
2018-01-15T06:42:24.697Z,19.40
2018-01-15T06:44:52.111Z,22.57
2018-01-15T06:47:20.908Z,22.90
2018-01-15T06:49:48.335Z,22.37
2018-01-15T06:52:15.767Z,22.07
2018-01-15T06:54:45.623Z,18.93
2018-01-15T06:57:13.830Z,16.23
2018-01-15T06:59:41.246Z,16.80
2018-01-15T07:02:09.451Z,17.07
2018-01-15T07:04:47.170Z,15.53
2018-01-15T07:07:14.611Z,15.77
2018-01-15T07:09:44.614Z,16.90
2018-01-15T07:12:12.048Z,18.00
2018-01-15T07:14:45.242Z,18.70
2018-01-15T07:17:13.468Z,18.57
2018-01-15T07:19:40.896Z,16.27
2018-01-15T07:22:08.343Z,16.73
2018-01-15T07:24:42.951Z,17.20
2018-01-15T07:27:11.544Z,17.83
2018-01-15T07:29:40.443Z,18.73
2018-01-15T07:32:07.851Z,17.57
2018-01-15T07:34:35.831Z,16.30
2018-01-15T07:37:03.281Z,16.37
2018-01-15T07:39:30.710Z,17.33
2018-01-15T07:41:58.127Z,15.67
2018-01-15T07:44:26.324Z,17.27
2018-01-15T07:46:53.744Z,16.40
2018-01-15T07:49:21.189Z,16.50
2018-01-15T07:51:48.630Z,15.40
2018-01-15T07:54:16.066Z,17.20
2018-01-15T07:56:43.483Z,17.87
2018-01-15T07:59:11.681Z,16.37
2018-01-15T08:01:39.094Z,17.73
2018-01-15T08:04:06.545Z,19.67
2018-01-15T08:06:33.978Z,16.77
2018-01-15T08:09:01.963Z,16.23
2018-01-15T08:11:29.382Z,17.50
2018-01-15T08:14:04.971Z,15.03
2018-01-15T08:16:32.908Z,16.90
2018-01-15T08:19:00.339Z,15.87
2018-01-15T08:21:28.526Z,15.53
2018-01-15T08:23:55.947Z,17.03
2018-01-15T08:26:23.379Z,17.87
2018-01-15T08:28:51.069Z,17.20
2018-01-15T08:31:18.485Z,19.30
2018-01-15T08:33:46.298Z,18.87
2018-01-15T08:36:14.493Z,18.83
2018-01-15T08:38:42.107Z,18.87
2018-01-15T08:41:11.215Z,19.57
2018-01-15T08:43:38.812Z,19.10
2018-01-15T08:46:06.658Z,20.77
2018-01-15T08:48:34.847Z,18.80
2018-01-15T08:51:02.276Z,20.17
2018-01-15T08:53:29.702Z,18.93
2018-01-15T08:55:57.123Z,21.07
2018-01-15T08:58:24.546Z,20.00
2018-01-15T09:00:51.981Z,20.17
2018-01-15T09:03:19.395Z,19.13
2018-01-15T09:05:46.812Z,18.20
2018-01-15T09:08:14.251Z,18.57
2018-01-15T09:10:51.900Z,18.47
2018-01-15T09:13:20.027Z,19.37
2018-01-15T09:15:47.458Z,20.40
2018-01-15T09:18:14.895Z,22.43
2018-01-15T09:20:42.320Z,26.37
2018-01-15T09:23:12.958Z,22.33
2018-01-15T09:25:41.176Z,21.53
2018-01-15T09:28:09.179Z,21.33
2018-01-15T09:30:36.608Z,20.97
2018-01-15T09:33:04.027Z,22.23
2018-01-15T09:35:32.224Z,19.80
2018-01-15T09:37:59.650Z,19.93
2018-01-15T09:40:27.844Z,21.20
2018-01-15T09:42:55.803Z,18.10
2018-01-15T09:45:25.856Z,19.80
2018-01-15T09:47:53.288Z,19.67
2018-01-15T09:50:21.280Z,19.20
2018-01-15T09:52:48.707Z,19.47
2018-01-15T09:55:16.133Z,19.47
2018-01-15T09:57:43.559Z,20.63
2018-01-15T10:00:12.925Z,19.37
2018-01-15T10:02:41.091Z,20.80
2018-01-15T10:05:09.701Z,21.27
2018-01-15T10:07:37.121Z,20.57
2018-01-15T10:10:05.836Z,21.07
2018-01-15T10:12:33.820Z,22.07
2018-01-15T10:15:01.659Z,21.80
2018-01-15T10:17:32.526Z,21.00
2018-01-15T10:20:01.873Z,22.13
2018-01-15T10:22:29.280Z,20.93
2018-01-15T10:24:56.697Z,20.90
2018-01-15T10:27:24.886Z,20.20
2018-01-15T10:29:52.778Z,21.87
2018-01-15T10:32:20.209Z,20.27
2018-01-15T10:34:47.627Z,21.10
2018-01-15T10:37:17.670Z,20.87
2018-01-15T10:39:46.367Z,21.30
2018-01-15T10:42:13.784Z,21.57
2018-01-15T10:44:41.211Z,21.43
2018-01-15T10:47:08.631Z,21.30
2018-01-15T10:49:36.818Z,20.30
2018-01-15T10:52:04.248Z,20.73
2018-01-15T10:54:32.430Z,20.13
2018-01-15T10:57:00.628Z,20.10
2018-01-15T10:59:28.060Z,21.33
2018-01-15T11:02:02.418Z,21.60
2018-01-15T11:04:30.790Z,21.47
2018-01-15T11:06:58.216Z,20.43
2018-01-15T11:09:26.398Z,20.30
2018-01-15T11:11:54.610Z,21.43
2018-01-15T11:14:22.019Z,21.10
2018-01-15T11:16:50.216Z,21.23
2018-01-15T11:19:18.195Z,21.00
2018-01-15T11:21:45.614Z,21.93
2018-01-15T11:24:31.219Z,20.23
2018-01-15T11:26:58.642Z,19.60
2018-01-15T11:29:26.062Z,20.43
2018-01-15T11:31:53.491Z,20.03
2018-01-15T11:34:20.925Z,21.13
2018-01-15T11:36:49.115Z,18.67
2018-01-15T11:39:17.757Z,19.40
2018-01-15T11:41:45.191Z,19.50
2018-01-15T11:44:12.619Z,20.50
2018-01-15T11:46:40.966Z,19.63
2018-01-15T11:49:08.459Z,19.37
2018-01-15T11:51:35.888Z,19.63
2018-01-15T11:54:03.319Z,19.17
2018-01-15T11:56:30.754Z,19.77
2018-01-15T11:58:58.179Z,19.67
2018-01-15T12:01:25.622Z,18.50
2018-01-15T12:03:53.827Z,19.30
2018-01-15T12:06:21.251Z,20.43
2018-01-15T12:08:49.447Z,18.47
2018-01-15T12:11:16.878Z,19.87
2018-01-15T12:13:44.315Z,18.97
2018-01-15T12:16:11.735Z,19.27
2018-01-15T12:18:39.155Z,19.97
2018-01-15T12:21:07.352Z,18.77
2018-01-15T12:23:34.827Z,18.33
2018-01-15T12:26:02.260Z,18.43
2018-01-15T12:28:29.675Z,18.53
2018-01-15T12:30:57.118Z,17.93
2018-01-15T12:33:24.546Z,18.43
2018-01-15T12:35:51.966Z,17.57
2018-01-15T12:38:19.408Z,17.90
2018-01-15T12:40:46.860Z,18.67
2018-01-15T12:43:14.285Z,18.90
2018-01-15T12:45:41.920Z,17.17
2018-01-15T12:48:09.759Z,18.33
2018-01-15T12:50:37.953Z,18.10
2018-01-15T12:53:06.562Z,17.57
2018-01-15T12:55:33.984Z,17.33
2018-01-15T12:58:02.174Z,15.87
2018-01-15T13:00:29.609Z,17.00
2018-01-15T13:02:57.033Z,18.13
2018-01-15T13:08:36.934Z,16.63
2018-01-15T13:11:05.285Z,15.93
2018-01-15T13:13:32.724Z,16.67
2018-01-15T13:16:00.161Z,17.43
2018-01-15T13:18:28.524Z,17.53
2018-01-15T13:20:55.959Z,16.20
2018-01-15T13:23:24.172Z,16.97
2018-01-15T13:25:51.618Z,17.80
2018-01-15T13:28:19.083Z,16.60
2018-01-15T13:30:46.531Z,16.57
2018-01-15T13:33:14.859Z,16.67
2018-01-15T13:35:42.293Z,16.47
2018-01-15T13:38:10.452Z,15.77
2018-01-15T13:40:37.885Z,16.17
2018-01-15T13:43:06.090Z,15.40
2018-01-15T13:45:33.514Z,15.77
2018-01-15T13:48:00.976Z,15.07
2018-01-15T13:50:29.174Z,16.93
2018-01-15T13:52:56.625Z,15.73
2018-01-15T13:55:24.275Z,15.60
2018-01-15T13:57:51.900Z,14.40
2018-01-15T14:00:20.232Z,14.27
2018-01-15T14:02:47.684Z,14.67
2018-01-15T14:05:15.644Z,13.93
2018-01-15T14:07:43.079Z,14.00
2018-01-15T14:10:15.493Z,14.57
2018-01-15T14:12:42.928Z,15.03
2018-01-15T14:15:11.273Z,14.73
2018-01-15T14:17:40.020Z,13.90
2018-01-15T14:20:07.469Z,12.97
2018-01-15T14:22:34.921Z,14.13
2018-01-15T14:25:02.375Z,13.00
2018-01-15T14:27:29.807Z,13.17
2018-01-15T14:29:58.019Z,12.13
2018-01-15T14:32:25.461Z,13.13
2018-01-15T14:34:52.888Z,12.17
2018-01-15T14:37:20.424Z,12.90
2018-01-15T14:39:48.546Z,12.33
2018-01-15T14:42:15.994Z,12.23
2018-01-15T14:44:43.433Z,12.43
2018-01-15T14:47:11.657Z,11.73
2018-01-15T14:49:39.089Z,12.07
2018-01-15T14:52:06.519Z,11.13
2018-01-15T14:54:34.730Z,10.83
2018-01-15T14:57:02.161Z,10.57
2018-01-15T14:59:36.124Z,11.60
2018-01-15T15:02:06.143Z,11.70
2018-01-15T15:04:33.589Z,11.17
2018-01-15T15:07:01.012Z,11.00
2018-01-15T15:09:32.744Z,10.77
2018-01-15T15:12:02.868Z,11.43
2018-01-15T15:14:31.073Z,11.37
2018-01-15T15:19:53.025Z,11.50
2018-01-15T15:22:20.460Z,10.50
2018-01-15T15:24:48.676Z,9.97
2018-01-15T15:27:16.132Z,10.57
2018-01-15T15:29:44.467Z,11.70
2018-01-15T15:32:12.259Z,11.00
2018-01-15T15:34:50.411Z,11.63
2018-01-15T15:37:17.848Z,11.07
2018-01-15T15:39:45.733Z,11.80
2018-01-15T15:42:13.221Z,12.30
2018-01-15T15:44:40.683Z,12.50
2018-01-15T15:47:08.277Z,12.73
2018-01-15T15:49:35.856Z,12.90
2018-01-15T15:52:03.394Z,13.63
2018-01-15T15:54:30.905Z,14.63
2018-01-15T15:56:58.355Z,13.60
2018-01-15T15:59:25.852Z,14.67
2018-01-15T16:01:53.355Z,14.37
2018-01-15T16:04:20.842Z,14.60
2018-01-15T16:06:49.103Z,15.03
2018-01-15T16:09:23.252Z,13.83
2018-01-15T16:11:50.801Z,15.67
2018-01-15T16:14:19.308Z,15.13
2018-01-15T16:16:46.748Z,14.70
2018-01-15T16:19:15.060Z,14.90
2018-01-15T16:21:42.548Z,14.87
2018-01-15T16:24:10.009Z,13.77
2018-01-15T16:26:37.495Z,15.33
2018-01-15T16:29:08.365Z,13.27
2018-01-15T16:31:36.815Z,13.70
2018-01-15T16:34:04.274Z,13.33
2018-01-15T16:36:31.751Z,13.67
2018-01-15T16:39:04.543Z,13.87
2018-01-15T16:41:32.517Z,14.10
2018-01-15T16:44:00.574Z,14.57
2018-01-15T16:46:28.104Z,13.67
2018-01-15T16:48:56.056Z,12.53
2018-01-15T16:51:23.627Z,14.00
2018-01-15T16:53:51.902Z,13.20
2018-01-15T16:56:19.480Z,12.93
2018-01-15T16:58:47.508Z,13.17
2018-01-15T17:01:15.005Z,13.03
2018-01-15T17:03:43.270Z,12.97
2018-01-15T17:06:11.080Z,13.33
2018-01-15T17:08:38.593Z,13.70
2018-01-15T17:11:06.924Z,13.57
2018-01-15T17:13:37.053Z,12.97
2018-01-15T17:16:04.658Z,12.80
